TimeCDT,TemperatureF,Dew PointF,Humidity,Sea Level PressureIn,VisibilityMPH,Wind Direction,Wind SpeedMPH,Gust SpeedMPH,PrecipitationIn,Events,Conditions,WindDirDegrees,DateUTC
12:02 AM,35.6,33.8,93,29.77,1.5,South,3.5,-,N/A,,Overcast,180,2013-03-18 05:02:00
12:12 AM,33.8,33.8,100,29.78,1.8,Calm,Calm,-,N/A,,Overcast,0,2013-03-18 05:12:00
12:26 AM,33.8,33.8,100,29.77,2.0,South,3.5,-,N/A,,Overcast,170,2013-03-18 05:26:00
12:55 AM,34.0,33.1,96,29.81,3.0,South,3.5,-,N/A,,Overcast,190,2013-03-18 05:55:00
1:12 AM,33.8,33.8,100,29.78,4.0,South,4.6,-,N/A,,Overcast,170,2013-03-18 06:12:00
1:34 AM,33.8,33.8,100,29.77,4.0,South,4.6,-,N/A,,Overcast,170,2013-03-18 06:34:00
1:46 AM,33.8,33.8,100,29.76,4.0,South,8.1,-,N/A,,Overcast,170,2013-03-18 06:46:00
1:55 AM,34.0,33.1,96,29.80,4.0,South,8.1,-,N/A,,Overcast,180,2013-03-18 06:55:00
2:36 AM,33.8,32.0,93,29.77,4.0,Calm,Calm,-,N/A,,Overcast,0,2013-03-18 07:36:00
2:55 AM,34.0,32.0,92,29.82,4.0,WSW,3.5,-,N/A,,Overcast,250,2013-03-18 07:55:00
3:55 AM,35.1,33.1,92,29.84,3.0,WNW,9.2,-,N/A,,Overcast,290,2013-03-18 08:55:00
4:21 AM,35.6,33.8,93,29.81,2.5,WNW,8.1,-,N/A,,Overcast,290,2013-03-18 09:21:00
4:39 AM,35.6,33.8,93,29.81,1.5,West,9.2,-,N/A,,Overcast,270,2013-03-18 09:39:00
4:55 AM,35.1,34.0,96,29.83,1.5,West,10.4,-,N/A,,Overcast,280,2013-03-18 09:55:00
5:05 AM,35.6,33.8,93,29.80,1.8,West,10.4,-,N/A,,Overcast,280,2013-03-18 10:05:00
5:34 AM,35.6,33.8,93,29.82,2.0,West,12.7,-,N/A,,Overcast,280,2013-03-18 10:34:00
5:53 AM,35.6,33.8,93,29.82,2.0,WNW,9.2,-,N/A,,Mostly Cloudy,290,2013-03-18 10:53:00
5:55 AM,35.1,33.1,92,29.85,2.0,WNW,9.2,-,N/A,,Mostly Cloudy,290,2013-03-18 10:55:00
6:03 AM,33.8,33.8,100,29.82,2.0,WNW,8.1,-,N/A,,Scattered Clouds,290,2013-03-18 11:03:00
6:50 AM,33.8,32.0,93,29.85,3.0,West,6.9,-,N/A,,Clear,270,2013-03-18 11:50:00
6:55 AM,33.1,30.9,92,29.88,3.0,WNW,8.1,-,N/A,,Clear,290,2013-03-18 11:55:00
7:55 AM,34.0,26.1,73,29.91,10.0,NW,11.5,-,N/A,,Clear,320,2013-03-18 12:55:00
8:55 AM,36.0,25.0,64,29.93,10.0,NNW,13.8,-,N/A,,Clear,330,2013-03-18 13:55:00
9:55 AM,37.9,27.0,65,29.94,10.0,NW,11.5,-,N/A,,Clear,320,2013-03-18 14:55:00
10:55 AM,43.0,27.0,53,29.94,10.0,NW,11.5,-,N/A,,Clear,310,2013-03-18 15:55:00
11:55 AM,46.9,28.9,50,29.95,10.0,NW,16.1,-,N/A,,Clear,320,2013-03-18 16:55:00
12:55 PM,50.0,26.1,39,29.94,10.0,NW,21.9,29.9,N/A,,Clear,320,2013-03-18 17:55:00
1:55 PM,51.1,24.1,35,29.94,10.0,NNW,19.6,29.9,N/A,,Clear,340,2013-03-18 18:55:00
2:55 PM,52.0,23.0,32,29.95,10.0,NNW,17.3,24.2,N/A,,Clear,340,2013-03-18 19:55:00
3:55 PM,51.1,21.0,31,29.95,10.0,NNW,25.3,29.9,N/A,,Clear,330,2013-03-18 20:55:00
4:55 PM,50.0,21.0,32,29.96,10.0,WNW,17.3,23.0,N/A,,Clear,300,2013-03-18 21:55:00
5:55 PM,50.0,18.0,28,29.97,10.0,NNW,18.4,26.5,N/A,,Clear,330,2013-03-18 22:55:00
6:55 PM,46.9,15.1,28,29.98,10.0,North,13.8,19.6,N/A,,Clear,350,2013-03-18 23:55:00
7:55 PM,42.1,15.1,34,30.01,10.0,North,8.1,-,N/A,,Clear,360,2013-03-19 00:55:00
8:55 PM,37.9,16.0,41,30.03,10.0,NE,3.5,-,N/A,,Clear,40,2013-03-19 01:55:00
9:55 PM,35.1,16.0,46,30.06,10.0,Calm,Calm,-,N/A,,Clear,0,2013-03-19 02:55:00
10:55 PM,35.1,17.1,48,30.06,10.0,NE,8.1,-,N/A,,Overcast,40,2013-03-19 03:55:00
11:55 PM,35.1,17.1,48,30.10,10.0,NE,5.8,-,N/A,,Overcast,50,2013-03-19 04:55:00